sensor_id;sensor_type;location;lat;lon;timestamp;temperature;humidity
47521;DHT22;32291;52.010;4.446;2024-01-06T00:00:32;5.80;99.90
47521;DHT22;32291;52.010;4.446;2024-01-06T00:01:39;5.90;99.90
47521;DHT22;32291;52.010;4.446;2024-01-06T00:02:46;5.80;99.90
47521;DHT22;32291;52.010;4.446;2024-01-06T00:03:53;5.80;99.90
47521;DHT22;32291;52.010;4.446;2024-01-06T00:05:00;5.80;99.90
47521;DHT22;32291;52.010;4.446;2024-01-06T00:06:02;5.80;99.90
47521;DHT22;32291;52.010;4.446;2024-01-06T00:07:09;5.80;99.90
47521;DHT22;32291;52.010;4.446;2024-01-06T00:08:16;5.80;99.90
47521;DHT22;32291;52.010;4.446;2024-01-06T00:09:23;5.80;99.90
47521;DHT22;32291;52.010;4.446;2024-01-06T00:10:30;5.80;99.90
47521;DHT22;32291;52.010;4.446;2024-01-06T00:11:36;5.80;99.90
47521;DHT22;32291;52.010;4.446;2024-01-06T00:12:42;5.80;99.90
47521;DHT22;32291;52.010;4.446;2024-01-06T00:13:44;5.80;99.90
47521;DHT22;32291;52.010;4.446;2024-01-06T00:14:51;5.80;99.90
47521;DHT22;32291;52.010;4.446;2024-01-06T00:15:58;5.80;99.90
47521;DHT22;32291;52.010;4.446;2024-01-06T00:17:05;5.80;99.90
47521;DHT22;32291;52.010;4.446;2024-01-06T00:18:12;5.80;99.90
47521;DHT22;32291;52.010;4.446;2024-01-06T00:19:19;5.80;99.90
47521;DHT22;32291;52.010;4.446;2024-01-06T00:20:26;5.80;99.90
47521;DHT22;32291;52.010;4.446;2024-01-06T00:21:33;5.80;99.90
47521;DHT22;32291;52.010;4.446;2024-01-06T00:22:39;5.70;99.90
47521;DHT22;32291;52.010;4.446;2024-01-06T00:23:44;5.70;99.90
47521;DHT22;32291;52.010;4.446;2024-01-06T00:24:46;5.80;99.90
47521;DHT22;32291;52.010;4.446;2024-01-06T00:25:53;5.70;99.90
47521;DHT22;32291;52.010;4.446;2024-01-06T00:27:00;5.70;99.90
47521;DHT22;32291;52.010;4.446;2024-01-06T00:28:07;5.70;99.90
47521;DHT22;32291;52.010;4.446;2024-01-06T00:29:14;5.70;99.90
47521;DHT22;32291;52.010;4.446;2024-01-06T00:30:16;5.70;99.90
47521;DHT22;32291;52.010;4.446;2024-01-06T00:31:22;5.70;99.90
47521;DHT22;32291;52.010;4.446;2024-01-06T00:32:25;5.70;99.90
47521;DHT22;32291;52.010;4.446;2024-01-06T00:33:32;5.70;99.90
47521;DHT22;32291;52.010;4.446;2024-01-06T00:34:38;5.70;99.90
47521;DHT22;32291;52.010;4.446;2024-01-06T00:35:40;5.70;99.90
47521;DHT22;32291;52.010;4.446;2024-01-06T00:36:47;5.70;99.90
47521;DHT22;32291;52.010;4.446;2024-01-06T00:37:54;5.80;99.90
47521;DHT22;32291;52.010;4.446;2024-01-06T00:38:57;5.70;99.90
47521;DHT22;32291;52.010;4.446;2024-01-06T00:40:04;5.70;99.90
47521;DHT22;32291;52.010;4.446;2024-01-06T00:41:13;5.70;99.90
47521;DHT22;32291;52.010;4.446;2024-01-06T00:42:20;5.70;99.90
47521;DHT22;32291;52.010;4.446;2024-01-06T00:43:26;5.70;99.90
47521;DHT22;32291;52.010;4.446;2024-01-06T00:44:36;5.70;99.90
47521;DHT22;32291;52.010;4.446;2024-01-06T00:45:39;5.60;99.90
47521;DHT22;32291;52.010;4.446;2024-01-06T00:46:45;5.60;99.90
47521;DHT22;32291;52.010;4.446;2024-01-06T00:47:53;5.60;99.90
47521;DHT22;32291;52.010;4.446;2024-01-06T00:48:59;5.60;99.90
47521;DHT22;32291;52.010;4.446;2024-01-06T00:50:02;5.60;99.90
47521;DHT22;32291;52.010;4.446;2024-01-06T00:51:09;5.60;99.90
47521;DHT22;32291;52.010;4.446;2024-01-06T00:52:12;5.60;99.90
47521;DHT22;32291;52.010;4.446;2024-01-06T00:53:19;5.60;99.90
47521;DHT22;32291;52.010;4.446;2024-01-06T00:54:26;5.60;99.90
47521;DHT22;32291;52.010;4.446;2024-01-06T00:55:32;5.60;99.90
47521;DHT22;32291;52.010;4.446;2024-01-06T00:56:39;5.60;99.90
47521;DHT22;32291;52.010;4.446;2024-01-06T00:57:48;5.60;99.90
47521;DHT22;32291;52.010;4.446;2024-01-06T00:58:57;5.60;99.90
47521;DHT22;32291;52.010;4.446;2024-01-06T01:00:05;5.60;99.90
47521;DHT22;32291;52.010;4.446;2024-01-06T01:01:12;5.60;99.90
47521;DHT22;32291;52.010;4.446;2024-01-06T01:02:19;5.60;99.90
47521;DHT22;32291;52.010;4.446;2024-01-06T01:03:26;5.60;99.90
47521;DHT22;32291;52.010;4.446;2024-01-06T01:04:33;5.60;99.90
47521;DHT22;32291;52.010;4.446;2024-01-06T01:05:39;5.60;99.90
47521;DHT22;32291;52.010;4.446;2024-01-06T01:06:46;5.60;99.90
47521;DHT22;32291;52.010;4.446;2024-01-06T01:07:49;5.60;99.90
47521;DHT22;32291;52.010;4.446;2024-01-06T01:08:56;5.60;99.90
47521;DHT22;32291;52.010;4.446;2024-01-06T01:10:03;5.60;99.90
47521;DHT22;32291;52.010;4.446;2024-01-06T01:11:11;5.60;99.90
47521;DHT22;32291;52.010;4.446;2024-01-06T01:12:18;5.60;99.90
47521;DHT22;32291;52.010;4.446;2024-01-06T01:13:20;5.60;99.90
47521;DHT22;32291;52.010;4.446;2024-01-06T01:14:27;5.50;99.90
47521;DHT22;32291;52.010;4.446;2024-01-06T01:15:34;5.50;99.90
47521;DHT22;32291;52.010;4.446;2024-01-06T01:16:41;5.50;99.90
47521;DHT22;32291;52.010;4.446;2024-01-06T01:17:48;5.50;99.90
47521;DHT22;32291;52.010;4.446;2024-01-06T01:18:54;5.50;99.90
47521;DHT22;32291;52.010;4.446;2024-01-06T01:20:01;5.50;99.90
47521;DHT22;32291;52.010;4.446;2024-01-06T01:21:12;5.50;99.90
47521;DHT22;32291;52.010;4.446;2024-01-06T01:22:19;5.50;99.90
47521;DHT22;32291;52.010;4.446;2024-01-06T01:23:25;5.50;99.90
47521;DHT22;32291;52.010;4.446;2024-01-06T01:24:32;5.50;99.90
47521;DHT22;32291;52.010;4.446;2024-01-06T01:25:39;5.50;99.90
47521;DHT22;32291;52.010;4.446;2024-01-06T01:26:46;5.50;99.90
47521;DHT22;32291;52.010;4.446;2024-01-06T01:27:53;5.50;99.90
47521;DHT22;32291;52.010;4.446;2024-01-06T01:29:00;5.50;99.90
47521;DHT22;32291;52.010;4.446;2024-01-06T01:30:10;5.50;99.90
47521;DHT22;32291;52.010;4.446;2024-01-06T01:31:12;5.60;99.90
47521;DHT22;32291;52.010;4.446;2024-01-06T01:32:15;5.50;99.90
47521;DHT22;32291;52.010;4.446;2024-01-06T01:33:16;5.50;99.90
47521;DHT22;32291;52.010;4.446;2024-01-06T01:34:18;5.50;99.90
47521;DHT22;32291;52.010;4.446;2024-01-06T01:35:25;5.60;99.90
47521;DHT22;32291;52.010;4.446;2024-01-06T01:36:32;5.60;99.90
47521;DHT22;32291;52.010;4.446;2024-01-06T01:37:34;5.50;99.90
47521;DHT22;32291;52.010;4.446;2024-01-06T01:38:41;5.50;99.90
47521;DHT22;32291;52.010;4.446;2024-01-06T01:39:48;5.60;99.90
47521;DHT22;32291;52.010;4.446;2024-01-06T01:40:55;5.50;99.90
47521;DHT22;32291;52.010;4.446;2024-01-06T01:41:57;5.50;99.90
47521;DHT22;32291;52.010;4.446;2024-01-06T01:42:59;5.50;99.90
47521;DHT22;32291;52.010;4.446;2024-01-06T01:44:06;5.50;99.90
47521;DHT22;32291;52.010;4.446;2024-01-06T01:45:13;5.50;99.90
47521;DHT22;32291;52.010;4.446;2024-01-06T01:46:20;5.50;99.90
47521;DHT22;32291;52.010;4.446;2024-01-06T01:47:27;5.50;99.90
47521;DHT22;32291;52.010;4.446;2024-01-06T01:48:30;5.50;99.90
47521;DHT22;32291;52.010;4.446;2024-01-06T01:49:40;5.50;99.90
47521;DHT22;32291;52.010;4.446;2024-01-06T01:50:48;5.50;99.90
47521;DHT22;32291;52.010;4.446;2024-01-06T01:51:55;5.60;99.90
47521;DHT22;32291;52.010;4.446;2024-01-06T01:53:02;5.50;99.90
47521;DHT22;32291;52.010;4.446;2024-01-06T01:54:05;5.50;99.90
47521;DHT22;32291;52.010;4.446;2024-01-06T01:55:09;5.40;99.90
47521;DHT22;32291;52.010;4.446;2024-01-06T01:56:16;5.50;99.90
47521;DHT22;32291;52.010;4.446;2024-01-06T01:57:20;5.40;99.90
47521;DHT22;32291;52.010;4.446;2024-01-06T01:58:24;5.40;99.90
47521;DHT22;32291;52.010;4.446;2024-01-06T01:59:26;5.40;99.90
47521;DHT22;32291;52.010;4.446;2024-01-06T02:00:28;5.40;99.90
47521;DHT22;32291;52.010;4.446;2024-01-06T02:01:35;5.40;99.90
47521;DHT22;32291;52.010;4.446;2024-01-06T02:02:38;5.30;99.90
47521;DHT22;32291;52.010;4.446;2024-01-06T02:03:43;5.40;99.90
47521;DHT22;32291;52.010;4.446;2024-01-06T02:04:51;5.40;99.90
47521;DHT22;32291;52.010;4.446;2024-01-06T02:05:58;5.30;99.90
47521;DHT22;32291;52.010;4.446;2024-01-06T02:07:04;5.30;99.90
47521;DHT22;32291;52.010;4.446;2024-01-06T02:08:07;5.30;99.90
47521;DHT22;32291;52.010;4.446;2024-01-06T02:09:09;5.30;99.90
47521;DHT22;32291;52.010;4.446;2024-01-06T02:10:17;5.30;99.90
47521;DHT22;32291;52.010;4.446;2024-01-06T02:11:24;5.30;99.90
47521;DHT22;32291;52.010;4.446;2024-01-06T02:12:31;5.30;99.90
47521;DHT22;32291;52.010;4.446;2024-01-06T02:13:38;5.20;99.90
47521;DHT22;32291;52.010;4.446;2024-01-06T02:14:45;5.10;99.90
47521;DHT22;32291;52.010;4.446;2024-01-06T02:15:52;5.20;99.90
47521;DHT22;32291;52.010;4.446;2024-01-06T02:16:59;5.20;99.90
47521;DHT22;32291;52.010;4.446;2024-01-06T02:18:02;5.20;99.90
47521;DHT22;32291;52.010;4.446;2024-01-06T02:19:05;5.10;99.90
47521;DHT22;32291;52.010;4.446;2024-01-06T02:20:13;5.10;99.90
47521;DHT22;32291;52.010;4.446;2024-01-06T02:21:23;5.10;99.90
47521;DHT22;32291;52.010;4.446;2024-01-06T02:22:25;5.10;99.90
47521;DHT22;32291;52.010;4.446;2024-01-06T02:23:35;5.10;99.90
47521;DHT22;32291;52.010;4.446;2024-01-06T02:24:43;5.10;99.90
47521;DHT22;32291;52.010;4.446;2024-01-06T02:25:50;5.10;99.90
47521;DHT22;32291;52.010;4.446;2024-01-06T02:26:57;5.10;99.90
47521;DHT22;32291;52.010;4.446;2024-01-06T02:28:06;5.10;99.90
47521;DHT22;32291;52.010;4.446;2024-01-06T02:29:13;5.10;99.90
47521;DHT22;32291;52.010;4.446;2024-01-06T02:30:15;5.00;99.90
47521;DHT22;32291;52.010;4.446;2024-01-06T02:31:17;5.00;99.90
47521;DHT22;32291;52.010;4.446;2024-01-06T02:32:19;5.00;99.90
47521;DHT22;32291;52.010;4.446;2024-01-06T02:33:26;5.00;99.90
47521;DHT22;32291;52.010;4.446;2024-01-06T02:34:33;5.00;99.90
47521;DHT22;32291;52.010;4.446;2024-01-06T02:35:41;5.00;99.90
47521;DHT22;32291;52.010;4.446;2024-01-06T02:36:43;5.00;99.90
47521;DHT22;32291;52.010;4.446;2024-01-06T02:37:50;5.00;99.90
47521;DHT22;32291;52.010;4.446;2024-01-06T02:38:57;5.10;99.90
47521;DHT22;32291;52.010;4.446;2024-01-06T02:40:04;5.00;99.90
47521;DHT22;32291;52.010;4.446;2024-01-06T02:41:11;5.00;99.90
47521;DHT22;32291;52.010;4.446;2024-01-06T02:42:13;5.00;99.90
47521;DHT22;32291;52.010;4.446;2024-01-06T02:43:15;4.90;99.90
47521;DHT22;32291;52.010;4.446;2024-01-06T02:44:22;4.90;99.90
47521;DHT22;32291;52.010;4.446;2024-01-06T02:45:29;4.90;99.90
47521;DHT22;32291;52.010;4.446;2024-01-06T02:46:36;4.90;99.90
47521;DHT22;32291;52.010;4.446;2024-01-06T02:47:39;4.90;99.90
47521;DHT22;32291;52.010;4.446;2024-01-06T02:48:41;4.90;99.90
47521;DHT22;32291;52.010;4.446;2024-01-06T02:49:49;4.90;99.90
47521;DHT22;32291;52.010;4.446;2024-01-06T02:50:56;5.00;99.90
47521;DHT22;32291;52.010;4.446;2024-01-06T02:52:03;5.00;99.90
47521;DHT22;32291;52.010;4.446;2024-01-06T02:53:06;4.90;99.90
47521;DHT22;32291;52.010;4.446;2024-01-06T02:54:13;4.90;99.90
47521;DHT22;32291;52.010;4.446;2024-01-06T02:55:20;5.00;99.90
47521;DHT22;32291;52.010;4.446;2024-01-06T02:56:27;5.00;99.90
47521;DHT22;32291;52.010;4.446;2024-01-06T02:57:33;4.90;99.90
47521;DHT22;32291;52.010;4.446;2024-01-06T02:58:42;5.00;99.90
47521;DHT22;32291;52.010;4.446;2024-01-06T02:59:49;4.90;99.90
47521;DHT22;32291;52.010;4.446;2024-01-06T03:00:51;5.00;99.90
47521;DHT22;32291;52.010;4.446;2024-01-06T03:01:58;5.00;99.90
47521;DHT22;32291;52.010;4.446;2024-01-06T03:03:05;5.00;99.90
47521;DHT22;32291;52.010;4.446;2024-01-06T03:04:11;5.00;99.90
47521;DHT22;32291;52.010;4.446;2024-01-06T03:05:18;4.90;99.90
47521;DHT22;32291;52.010;4.446;2024-01-06T03:06:25;4.90;99.90
47521;DHT22;32291;52.010;4.446;2024-01-06T03:07:28;5.00;99.90
47521;DHT22;32291;52.010;4.446;2024-01-06T03:08:30;4.90;99.90
47521;DHT22;32291;52.010;4.446;2024-01-06T03:09:37;5.00;99.90
47521;DHT22;32291;52.010;4.446;2024-01-06T03:10:40;4.90;99.90
47521;DHT22;32291;52.010;4.446;2024-01-06T03:11:49;4.90;99.90
47521;DHT22;32291;52.010;4.446;2024-01-06T03:12:59;5.00;99.90
47521;DHT22;32291;52.010;4.446;2024-01-06T03:14:06;5.00;99.90
47521;DHT22;32291;52.010;4.446;2024-01-06T03:15:08;5.00;99.90
47521;DHT22;32291;52.010;4.446;2024-01-06T03:16:11;5.00;99.90
47521;DHT22;32291;52.010;4.446;2024-01-06T03:17:19;5.00;99.90
47521;DHT22;32291;52.010;4.446;2024-01-06T03:18:26;5.00;99.90
47521;DHT22;32291;52.010;4.446;2024-01-06T03:19:28;5.00;99.90
47521;DHT22;32291;52.010;4.446;2024-01-06T03:20:35;5.00;99.90
47521;DHT22;32291;52.010;4.446;2024-01-06T03:21:42;5.00;99.90
47521;DHT22;32291;52.010;4.446;2024-01-06T03:22:44;5.00;99.90
47521;DHT22;32291;52.010;4.446;2024-01-06T03:23:51;5.00;99.90
47521;DHT22;32291;52.010;4.446;2024-01-06T03:24:58;4.90;99.90
47521;DHT22;32291;52.010;4.446;2024-01-06T03:26:06;5.00;99.90
47521;DHT22;32291;52.010;4.446;2024-01-06T03:27:13;5.00;99.90
47521;DHT22;32291;52.010;4.446;2024-01-06T03:28:20;5.00;99.90
47521;DHT22;32291;52.010;4.446;2024-01-06T03:29:27;5.00;99.90
47521;DHT22;32291;52.010;4.446;2024-01-06T03:30:34;5.00;99.90
47521;DHT22;32291;52.010;4.446;2024-01-06T03:31:37;5.00;99.90
47521;DHT22;32291;52.010;4.446;2024-01-06T03:32:44;5.00;99.90
47521;DHT22;32291;52.010;4.446;2024-01-06T03:33:51;5.00;99.90
47521;DHT22;32291;52.010;4.446;2024-01-06T03:35:00;5.00;99.90
47521;DHT22;32291;52.010;4.446;2024-01-06T03:36:07;5.00;99.90
47521;DHT22;32291;52.010;4.446;2024-01-06T03:37:14;5.00;99.90
47521;DHT22;32291;52.010;4.446;2024-01-06T03:38:21;5.00;99.90
47521;DHT22;32291;52.010;4.446;2024-01-06T03:39:28;5.00;99.90
47521;DHT22;32291;52.010;4.446;2024-01-06T03:40:30;5.00;99.90
47521;DHT22;32291;52.010;4.446;2024-01-06T03:41:37;4.90;99.90
47521;DHT22;32291;52.010;4.446;2024-01-06T03:42:44;4.90;99.90
47521;DHT22;32291;52.010;4.446;2024-01-06T03:43:46;5.00;99.90
47521;DHT22;32291;52.010;4.446;2024-01-06T03:44:53;5.00;99.90
47521;DHT22;32291;52.010;4.446;2024-01-06T03:46:00;5.00;99.90
47521;DHT22;32291;52.010;4.446;2024-01-06T03:47:06;5.00;99.90
47521;DHT22;32291;52.010;4.446;2024-01-06T03:48:14;5.00;99.90
47521;DHT22;32291;52.010;4.446;2024-01-06T03:49:20;4.90;99.90
47521;DHT22;32291;52.010;4.446;2024-01-06T03:50:27;4.90;99.90
47521;DHT22;32291;52.010;4.446;2024-01-06T03:51:34;4.90;99.90
47521;DHT22;32291;52.010;4.446;2024-01-06T03:52:41;4.90;99.90
47521;DHT22;32291;52.010;4.446;2024-01-06T03:53:43;4.90;99.90
47521;DHT22;32291;52.010;4.446;2024-01-06T03:54:46;4.90;99.90
47521;DHT22;32291;52.010;4.446;2024-01-06T03:55:52;4.90;99.90
47521;DHT22;32291;52.010;4.446;2024-01-06T03:56:59;4.90;99.90
47521;DHT22;32291;52.010;4.446;2024-01-06T03:58:06;4.80;99.90
47521;DHT22;32291;52.010;4.446;2024-01-06T03:59:13;4.90;99.90
47521;DHT22;32291;52.010;4.446;2024-01-06T04:00:16;4.90;99.90
47521;DHT22;32291;52.010;4.446;2024-01-06T04:01:23;4.90;99.90
47521;DHT22;32291;52.010;4.446;2024-01-06T04:02:25;4.90;99.90
47521;DHT22;32291;52.010;4.446;2024-01-06T04:03:27;4.90;99.90
47521;DHT22;32291;52.010;4.446;2024-01-06T04:04:30;4.90;99.90
47521;DHT22;32291;52.010;4.446;2024-01-06T04:05:32;4.90;99.90
47521;DHT22;32291;52.010;4.446;2024-01-06T04:06:39;4.80;99.90
47521;DHT22;32291;52.010;4.446;2024-01-06T04:07:41;4.90;99.90
47521;DHT22;32291;52.010;4.446;2024-01-06T04:08:43;4.90;99.90
47521;DHT22;32291;52.010;4.446;2024-01-06T04:09:50;4.90;99.90
47521;DHT22;32291;52.010;4.446;2024-01-06T04:10:52;4.90;99.90
47521;DHT22;32291;52.010;4.446;2024-01-06T04:11:59;4.90;99.90
47521;DHT22;32291;52.010;4.446;2024-01-06T04:13:07;4.90;99.90
47521;DHT22;32291;52.010;4.446;2024-01-06T04:14:18;4.90;99.90
47521;DHT22;32291;52.010;4.446;2024-01-06T04:15:20;4.90;99.90
47521;DHT22;32291;52.010;4.446;2024-01-06T04:16:27;4.90;99.90
47521;DHT22;32291;52.010;4.446;2024-01-06T04:17:34;4.90;99.90
47521;DHT22;32291;52.010;4.446;2024-01-06T04:18:36;4.90;99.90
47521;DHT22;32291;52.010;4.446;2024-01-06T04:19:41;4.80;99.90
47521;DHT22;32291;52.010;4.446;2024-01-06T04:20:43;4.90;99.90
47521;DHT22;32291;52.010;4.446;2024-01-06T04:21:50;4.80;99.90
47521;DHT22;32291;52.010;4.446;2024-01-06T04:22:52;4.90;99.90
47521;DHT22;32291;52.010;4.446;2024-01-06T04:23:59;4.80;99.90
47521;DHT22;32291;52.010;4.446;2024-01-06T04:25:06;4.80;99.90
47521;DHT22;32291;52.010;4.446;2024-01-06T04:26:16;4.80;99.90
47521;DHT22;32291;52.010;4.446;2024-01-06T04:27:18;4.80;99.90
47521;DHT22;32291;52.010;4.446;2024-01-06T04:28:20;4.80;99.90
47521;DHT22;32291;52.010;4.446;2024-01-06T04:29:23;4.80;99.90
47521;DHT22;32291;52.010;4.446;2024-01-06T04:30:29;4.70;99.90
47521;DHT22;32291;52.010;4.446;2024-01-06T04:31:36;4.70;99.90
47521;DHT22;32291;52.010;4.446;2024-01-06T04:32:38;4.70;99.90
47521;DHT22;32291;52.010;4.446;2024-01-06T04:33:40;4.80;99.90
47521;DHT22;32291;52.010;4.446;2024-01-06T04:34:43;4.80;99.90
47521;DHT22;32291;52.010;4.446;2024-01-06T04:35:49;4.80;99.90
47521;DHT22;32291;52.010;4.446;2024-01-06T04:36:56;4.80;99.90
47521;DHT22;32291;52.010;4.446;2024-01-06T04:38:03;4.70;99.90
47521;DHT22;32291;52.010;4.446;2024-01-06T04:39:10;4.70;99.90
47521;DHT22;32291;52.010;4.446;2024-01-06T04:40:19;4.70;99.90
47521;DHT22;32291;52.010;4.446;2024-01-06T04:41:26;4.70;99.90
47521;DHT22;32291;52.010;4.446;2024-01-06T04:42:32;4.70;99.90
47521;DHT22;32291;52.010;4.446;2024-01-06T04:43:39;4.70;99.90
47521;DHT22;32291;52.010;4.446;2024-01-06T04:44:46;4.70;99.90
47521;DHT22;32291;52.010;4.446;2024-01-06T04:45:53;4.70;99.90
47521;DHT22;32291;52.010;4.446;2024-01-06T04:46:55;4.70;99.90
47521;DHT22;32291;52.010;4.446;2024-01-06T04:47:57;4.70;99.90
47521;DHT22;32291;52.010;4.446;2024-01-06T04:49:00;4.70;99.90
47521;DHT22;32291;52.010;4.446;2024-01-06T04:50:02;4.70;99.90
47521;DHT22;32291;52.010;4.446;2024-01-06T04:51:12;4.70;99.90
47521;DHT22;32291;52.010;4.446;2024-01-06T04:52:19;4.70;99.90
47521;DHT22;32291;52.010;4.446;2024-01-06T04:53:22;4.70;99.90
47521;DHT22;32291;52.010;4.446;2024-01-06T04:54:28;4.70;99.90
47521;DHT22;32291;52.010;4.446;2024-01-06T04:55:30;4.70;99.90
47521;DHT22;32291;52.010;4.446;2024-01-06T04:56:40;4.70;99.90
47521;DHT22;32291;52.010;4.446;2024-01-06T04:57:48;4.70;99.90
47521;DHT22;32291;52.010;4.446;2024-01-06T04:58:51;4.70;99.90
47521;DHT22;32291;52.010;4.446;2024-01-06T04:59:53;4.70;99.90
47521;DHT22;32291;52.010;4.446;2024-01-06T05:01:00;4.70;99.90
47521;DHT22;32291;52.010;4.446;2024-01-06T05:02:07;4.70;99.90
47521;DHT22;32291;52.010;4.446;2024-01-06T05:03:09;4.70;99.90
47521;DHT22;32291;52.010;4.446;2024-01-06T05:04:16;4.70;99.90
47521;DHT22;32291;52.010;4.446;2024-01-06T05:05:23;4.70;99.90
47521;DHT22;32291;52.010;4.446;2024-01-06T05:06:30;4.70;99.90
47521;DHT22;32291;52.010;4.446;2024-01-06T05:07:32;4.70;99.90
47521;DHT22;32291;52.010;4.446;2024-01-06T05:08:39;4.70;99.90
47521;DHT22;32291;52.010;4.446;2024-01-06T05:09:50;4.70;99.90
47521;DHT22;32291;52.010;4.446;2024-01-06T05:10:57;4.70;99.90
47521;DHT22;32291;52.010;4.446;2024-01-06T05:12:04;4.70;99.90
47521;DHT22;32291;52.010;4.446;2024-01-06T05:13:11;4.70;99.90
47521;DHT22;32291;52.010;4.446;2024-01-06T05:14:18;4.70;99.90
47521;DHT22;32291;52.010;4.446;2024-01-06T05:15:21;4.70;99.90
47521;DHT22;32291;52.010;4.446;2024-01-06T05:16:23;4.70;99.90
47521;DHT22;32291;52.010;4.446;2024-01-06T05:17:25;4.70;99.90
47521;DHT22;32291;52.010;4.446;2024-01-06T05:18:32;4.80;99.90
47521;DHT22;32291;52.010;4.446;2024-01-06T05:19:34;4.70;99.90
47521;DHT22;32291;52.010;4.446;2024-01-06T05:20:41;4.60;99.90
47521;DHT22;32291;52.010;4.446;2024-01-06T05:21:43;4.60;99.90
47521;DHT22;32291;52.010;4.446;2024-01-06T05:22:45;4.60;99.90
47521;DHT22;32291;52.010;4.446;2024-01-06T05:23:52;4.60;99.90
47521;DHT22;32291;52.010;4.446;2024-01-06T05:24:54;4.60;99.90
47521;DHT22;32291;52.010;4.446;2024-01-06T05:25:57;4.60;99.90
47521;DHT22;32291;52.010;4.446;2024-01-06T05:26:59;4.60;99.90
47521;DHT22;32291;52.010;4.446;2024-01-06T05:28:01;4.60;99.90
47521;DHT22;32291;52.010;4.446;2024-01-06T05:29:08;4.50;99.90
47521;DHT22;32291;52.010;4.446;2024-01-06T05:30:15;4.50;99.90
47521;DHT22;32291;52.010;4.446;2024-01-06T05:31:22;4.60;99.90
47521;DHT22;32291;52.010;4.446;2024-01-06T05:32:29;4.60;99.90
47521;DHT22;32291;52.010;4.446;2024-01-06T05:33:35;4.50;99.90
47521;DHT22;32291;52.010;4.446;2024-01-06T05:34:38;4.60;99.90
47521;DHT22;32291;52.010;4.446;2024-01-06T05:35:45;4.50;99.90
47521;DHT22;32291;52.010;4.446;2024-01-06T05:36:47;4.60;99.90
47521;DHT22;32291;52.010;4.446;2024-01-06T05:37:54;4.60;99.90
47521;DHT22;32291;52.010;4.446;2024-01-06T05:38:56;4.60;99.90
47521;DHT22;32291;52.010;4.446;2024-01-06T05:40:03;4.50;99.90
47521;DHT22;32291;52.010;4.446;2024-01-06T05:41:11;4.60;99.90
47521;DHT22;32291;52.010;4.446;2024-01-06T05:42:18;4.50;99.90
47521;DHT22;32291;52.010;4.446;2024-01-06T05:43:25;4.60;99.90
47521;DHT22;32291;52.010;4.446;2024-01-06T05:44:35;4.60;99.90
47521;DHT22;32291;52.010;4.446;2024-01-06T05:45:38;4.50;99.90
47521;DHT22;32291;52.010;4.446;2024-01-06T05:46:43;4.60;99.90
47521;DHT22;32291;52.010;4.446;2024-01-06T05:47:45;4.50;99.90
47521;DHT22;32291;52.010;4.446;2024-01-06T05:48:52;4.50;99.90
47521;DHT22;32291;52.010;4.446;2024-01-06T05:49:54;4.60;99.90
47521;DHT22;32291;52.010;4.446;2024-01-06T05:51:01;4.50;99.90
47521;DHT22;32291;52.010;4.446;2024-01-06T05:52:08;4.60;99.90
47521;DHT22;32291;52.010;4.446;2024-01-06T05:53:15;4.60;99.90
47521;DHT22;32291;52.010;4.446;2024-01-06T05:54:25;4.60;99.90
47521;DHT22;32291;52.010;4.446;2024-01-06T05:55:32;4.60;99.90
47521;DHT22;32291;52.010;4.446;2024-01-06T05:56:39;4.50;99.90
47521;DHT22;32291;52.010;4.446;2024-01-06T05:57:41;4.50;99.90
47521;DHT22;32291;52.010;4.446;2024-01-06T05:58:49;4.50;99.90
47521;DHT22;32291;52.010;4.446;2024-01-06T05:59:55;4.50;99.90
47521;DHT22;32291;52.010;4.446;2024-01-06T06:01:05;4.50;99.90
47521;DHT22;32291;52.010;4.446;2024-01-06T06:02:12;4.50;99.90
47521;DHT22;32291;52.010;4.446;2024-01-06T06:03:17;4.50;99.90
47521;DHT22;32291;52.010;4.446;2024-01-06T06:04:19;4.50;99.90
47521;DHT22;32291;52.010;4.446;2024-01-06T06:05:26;4.50;99.90
47521;DHT22;32291;52.010;4.446;2024-01-06T06:06:32;4.50;99.90
47521;DHT22;32291;52.010;4.446;2024-01-06T06:07:34;4.60;99.90
47521;DHT22;32291;52.010;4.446;2024-01-06T06:08:46;4.50;99.90
47521;DHT22;32291;52.010;4.446;2024-01-06T06:09:54;4.50;99.90
47521;DHT22;32291;52.010;4.446;2024-01-06T06:10:56;4.50;99.90
47521;DHT22;32291;52.010;4.446;2024-01-06T06:12:17;4.50;99.90
47521;DHT22;32291;52.010;4.446;2024-01-06T06:13:24;4.50;99.90
47521;DHT22;32291;52.010;4.446;2024-01-06T06:14:26;4.60;99.90
47521;DHT22;32291;52.010;4.446;2024-01-06T06:15:34;4.50;99.90
47521;DHT22;32291;52.010;4.446;2024-01-06T06:16:36;4.50;99.90
47521;DHT22;32291;52.010;4.446;2024-01-06T06:17:42;4.50;99.90
47521;DHT22;32291;52.010;4.446;2024-01-06T06:18:45;4.40;99.90
47521;DHT22;32291;52.010;4.446;2024-01-06T06:19:52;4.50;99.90
47521;DHT22;32291;52.010;4.446;2024-01-06T06:20:59;4.50;99.90
47521;DHT22;32291;52.010;4.446;2024-01-06T06:22:01;4.50;99.90
47521;DHT22;32291;52.010;4.446;2024-01-06T06:23:06;4.50;99.90
47521;DHT22;32291;52.010;4.446;2024-01-06T06:24:13;4.50;99.90
47521;DHT22;32291;52.010;4.446;2024-01-06T06:25:20;4.40;99.90
47521;DHT22;32291;52.010;4.446;2024-01-06T06:26:22;4.40;99.90
47521;DHT22;32291;52.010;4.446;2024-01-06T06:27:29;4.40;99.90
47521;DHT22;32291;52.010;4.446;2024-01-06T06:28:31;4.40;99.90
47521;DHT22;32291;52.010;4.446;2024-01-06T06:29:38;4.40;99.90
47521;DHT22;32291;52.010;4.446;2024-01-06T06:30:40;4.40;99.90
47521;DHT22;32291;52.010;4.446;2024-01-06T06:31:47;4.40;99.90
47521;DHT22;32291;52.010;4.446;2024-01-06T06:32:50;4.40;99.90
47521;DHT22;32291;52.010;4.446;2024-01-06T06:33:52;4.40;99.90
47521;DHT22;32291;52.010;4.446;2024-01-06T06:34:59;4.40;99.90
47521;DHT22;32291;52.010;4.446;2024-01-06T06:36:05;4.40;99.90
47521;DHT22;32291;52.010;4.446;2024-01-06T06:37:11;4.40;99.90
47521;DHT22;32291;52.010;4.446;2024-01-06T06:38:18;4.40;99.90
47521;DHT22;32291;52.010;4.446;2024-01-06T06:39:20;4.40;99.90
47521;DHT22;32291;52.010;4.446;2024-01-06T06:40:27;4.40;99.90
47521;DHT22;32291;52.010;4.446;2024-01-06T06:41:35;4.40;99.90
47521;DHT22;32291;52.010;4.446;2024-01-06T06:42:38;4.40;99.90
47521;DHT22;32291;52.010;4.446;2024-01-06T06:43:41;4.40;99.90
47521;DHT22;32291;52.010;4.446;2024-01-06T06:44:43;4.40;99.90
47521;DHT22;32291;52.010;4.446;2024-01-06T06:45:50;4.40;99.90
47521;DHT22;32291;52.010;4.446;2024-01-06T06:46:57;4.40;99.90
47521;DHT22;32291;52.010;4.446;2024-01-06T06:48:04;4.40;99.90
47521;DHT22;32291;52.010;4.446;2024-01-06T06:49:11;4.40;99.90
47521;DHT22;32291;52.010;4.446;2024-01-06T06:50:13;4.40;99.90
47521;DHT22;32291;52.010;4.446;2024-01-06T06:51:20;4.40;99.90
47521;DHT22;32291;52.010;4.446;2024-01-06T06:52:31;4.40;99.90
47521;DHT22;32291;52.010;4.446;2024-01-06T06:53:33;4.40;99.90
47521;DHT22;32291;52.010;4.446;2024-01-06T06:54:40;4.40;99.90
47521;DHT22;32291;52.010;4.446;2024-01-06T06:55:43;4.40;99.90
47521;DHT22;32291;52.010;4.446;2024-01-06T06:56:50;4.40;99.90
47521;DHT22;32291;52.010;4.446;2024-01-06T06:57:53;4.40;99.90
47521;DHT22;32291;52.010;4.446;2024-01-06T06:59:00;4.40;99.90
47521;DHT22;32291;52.010;4.446;2024-01-06T07:00:05;4.40;99.90
47521;DHT22;32291;52.010;4.446;2024-01-06T07:01:10;4.40;99.90